sensor_id;sensor_type;location;lat;lon;timestamp;pressure;altitude;pressure_sealevel;temperature;humidity
38806;BME280;25635;51.146;17.162;2022-09-03T00:11:24;100441.67;;;12.52;68.21
38806;BME280;25635;51.146;17.162;2022-09-03T00:14:09;100447.37;;;12.52;68.34
38806;BME280;25635;51.146;17.162;2022-09-03T00:16:50;100448.27;;;12.51;68.32
38806;BME280;25635;51.146;17.162;2022-09-03T00:19:34;100445.66;;;12.49;68.78
38806;BME280;25635;51.146;17.162;2022-09-03T00:22:23;100438.71;;;12.45;69.37
38806;BME280;25635;51.146;17.162;2022-09-03T00:24:55;100438.72;;;12.44;69.55
38806;BME280;25635;51.146;17.162;2022-09-03T00:27:26;100439.63;;;12.41;69.77
38806;BME280;25635;51.146;17.162;2022-09-03T00:30:05;100433.55;;;12.36;68.59
38806;BME280;25635;51.146;17.162;2022-09-03T00:32:58;100434.51;;;12.32;68.78
38806;BME280;25635;51.146;17.162;2022-09-03T00:35:42;100437.61;;;12.25;68.89
38806;BME280;25635;51.146;17.162;2022-09-03T00:38:08;100434.60;;;12.21;70.24
38806;BME280;25635;51.146;17.162;2022-09-03T00:46:23;100428.21;;;12.07;69.64
38806;BME280;25635;51.146;17.162;2022-09-03T00:55:08;100430.16;;;11.88;70.98
38806;BME280;25635;51.146;17.162;2022-09-03T00:57:56;100433.65;;;11.84;69.90
38806;BME280;25635;51.146;17.162;2022-09-03T01:00:25;100430.23;;;11.78;71.06
38806;BME280;25635;51.146;17.162;2022-09-03T01:03:11;100435.88;;;11.77;70.59
38806;BME280;25635;51.146;17.162;2022-09-03T01:06:07;100435.97;;;11.69;72.09
38806;BME280;25635;51.146;17.162;2022-09-03T01:11:31;100434.77;;;11.55;70.77
38806;BME280;25635;51.146;17.162;2022-09-03T01:14:37;100437.03;;;11.47;71.39
38806;BME280;25635;51.146;17.162;2022-09-03T01:20:03;100440.55;;;11.40;71.50
38806;BME280;25635;51.146;17.162;2022-09-03T01:25:16;100442.39;;;11.30;71.99
38806;BME280;25635;51.146;17.162;2022-09-03T01:30:35;100441.50;;;11.29;73.07
38806;BME280;25635;51.146;17.162;2022-09-03T01:33:24;100441.95;;;11.29;73.01
38806;BME280;25635;51.146;17.162;2022-09-03T01:36:06;100443.74;;;11.21;71.14
38806;BME280;25635;51.146;17.162;2022-09-03T01:38:50;100444.23;;;11.12;71.82
38806;BME280;25635;51.146;17.162;2022-09-03T01:44:56;100438.58;;;11.11;72.24
38806;BME280;25635;51.146;17.162;2022-09-03T01:50:41;100436.45;;;11.02;73.77
38806;BME280;25635;51.146;17.162;2022-09-03T01:53:27;100432.14;;;10.96;74.04
38806;BME280;25635;51.146;17.162;2022-09-03T01:58:58;100432.59;;;10.89;74.24
38806;BME280;25635;51.146;17.162;2022-09-03T02:04:17;100430.87;;;10.85;73.89
38806;BME280;25635;51.146;17.162;2022-09-03T02:06:49;100431.34;;;10.80;74.41
38806;BME280;25635;51.146;17.162;2022-09-03T02:09:17;100427.03;;;10.73;73.34
38806;BME280;25635;51.146;17.162;2022-09-03T02:11:51;100423.11;;;10.68;73.90
38806;BME280;25635;51.146;17.162;2022-09-03T02:14:24;100427.48;;;10.66;75.51
38806;BME280;25635;51.146;17.162;2022-09-03T02:16:51;100427.03;;;10.68;75.95
38806;BME280;25635;51.146;17.162;2022-09-03T02:19:19;100425.75;;;10.65;75.19
38806;BME280;25635;51.146;17.162;2022-09-03T02:21:50;100427.50;;;10.60;74.17
38806;BME280;25635;51.146;17.162;2022-09-03T02:24:18;100427.56;;;10.52;75.15
38806;BME280;25635;51.146;17.162;2022-09-03T02:26:44;100427.16;;;10.41;73.78
38806;BME280;25635;51.146;17.162;2022-09-03T02:29:13;100427.16;;;10.39;75.41
38806;BME280;25635;51.146;17.162;2022-09-03T02:31:40;100428.04;;;10.37;75.14
38806;BME280;25635;51.146;17.162;2022-09-03T02:34:06;100424.13;;;10.37;75.76
38806;BME280;25635;51.146;17.162;2022-09-03T02:36:39;100423.70;;;10.32;74.20
38806;BME280;25635;51.146;17.162;2022-09-03T02:39:12;100426.30;;;10.26;75.27
38806;BME280;25635;51.146;17.162;2022-09-03T02:41:39;100430.68;;;10.21;75.00
38806;BME280;25635;51.146;17.162;2022-09-03T02:44:17;100434.63;;;10.17;75.17
38806;BME280;25635;51.146;17.162;2022-09-03T02:46:52;100437.25;;;10.09;75.33
38806;BME280;25635;51.146;17.162;2022-09-03T02:49:20;100433.77;;;9.99;74.98
38806;BME280;25635;51.146;17.162;2022-09-03T02:51:46;100428.98;;;9.99;76.01
38806;BME280;25635;51.146;17.162;2022-09-03T02:54:13;100429.87;;;9.96;76.43
38806;BME280;25635;51.146;17.162;2022-09-03T02:56:39;100428.10;;;10.01;77.59
38806;BME280;25635;51.146;17.162;2022-09-03T02:59:08;100434.19;;;10.02;77.38
38806;BME280;25635;51.146;17.162;2022-09-03T03:01:35;100431.58;;;10.02;76.15
38806;BME280;25635;51.146;17.162;2022-09-03T03:04:02;100425.09;;;9.96;76.28
38806;BME280;25635;51.146;17.162;2022-09-03T03:06:28;100430.30;;;9.99;77.17
38806;BME280;25635;51.146;17.162;2022-09-03T03:08:54;100426.81;;;9.97;77.19
38806;BME280;25635;51.146;17.162;2022-09-03T03:11:22;100428.55;;;9.93;76.93
38806;BME280;25635;51.146;17.162;2022-09-03T03:13:51;100430.30;;;9.92;77.83
38806;BME280;25635;51.146;17.162;2022-09-03T03:16:18;100430.75;;;9.93;77.94
38806;BME280;25635;51.146;17.162;2022-09-03T03:18:44;100427.25;;;9.94;78.32
38806;BME280;25635;51.146;17.162;2022-09-03T03:21:15;100430.28;;;9.97;78.39
38806;BME280;25635;51.146;17.162;2022-09-03T03:23:43;100432.46;;;9.99;78.53
38806;BME280;25635;51.146;17.162;2022-09-03T03:26:13;100431.60;;;9.99;78.59
38806;BME280;25635;51.146;17.162;2022-09-03T03:28:43;100429.86;;;9.94;78.78
38806;BME280;25635;51.146;17.162;2022-09-03T03:31:13;100426.39;;;9.96;78.67
38806;BME280;25635;51.146;17.162;2022-09-03T03:33:41;100434.66;;;9.92;78.29
38806;BME280;25635;51.146;17.162;2022-09-03T03:36:11;100431.19;;;9.91;78.60
38806;BME280;25635;51.146;17.162;2022-09-03T03:38:40;100438.59;;;9.93;79.38
38806;BME280;25635;51.146;17.162;2022-09-03T03:43:40;100432.48;;;9.87;77.81
38806;BME280;25635;51.146;17.162;2022-09-03T03:46:08;100430.33;;;9.82;79.17
38806;BME280;25635;51.146;17.162;2022-09-03T03:48:35;100428.14;;;9.80;79.23
38806;BME280;25635;51.146;17.162;2022-09-03T03:51:05;100429.89;;;9.78;79.74
38806;BME280;25635;51.146;17.162;2022-09-03T03:53:34;100429.02;;;9.76;78.83
38806;BME280;25635;51.146;17.162;2022-09-03T03:56:05;100434.69;;;9.75;79.26
38806;BME280;25635;51.146;17.162;2022-09-03T03:58:35;100428.57;;;9.74;79.88
38806;BME280;25635;51.146;17.162;2022-09-03T04:01:07;100422.48;;;9.68;78.73
38806;BME280;25635;51.146;17.162;2022-09-03T04:03:35;100426.86;;;9.63;79.55
38806;BME280;25635;51.146;17.162;2022-09-03T04:06:03;100433.39;;;9.63;80.00
38806;BME280;25635;51.146;17.162;2022-09-03T04:08:50;100426.85;;;9.61;78.46
38806;BME280;25635;51.146;17.162;2022-09-03T04:11:19;100427.73;;;9.59;79.45
38806;BME280;25635;51.146;17.162;2022-09-03T04:13:47;100430.77;;;9.63;80.50
38806;BME280;25635;51.146;17.162;2022-09-03T04:16:17;100427.71;;;9.62;79.63
38806;BME280;25635;51.146;17.162;2022-09-03T04:18:46;100422.95;;;9.58;78.67
38806;BME280;25635;51.146;17.162;2022-09-03T04:21:19;100428.61;;;9.50;79.15
38806;BME280;25635;51.146;17.162;2022-09-03T04:23:48;100425.54;;;9.49;80.33
38806;BME280;25635;51.146;17.162;2022-09-03T04:26:18;100424.69;;;9.50;81.05
38806;BME280;25635;51.146;17.162;2022-09-03T04:28:49;100433.81;;;9.48;79.94
38806;BME280;25635;51.146;17.162;2022-09-03T04:31:18;100428.59;;;9.47;80.41
38806;BME280;25635;51.146;17.162;2022-09-03T04:33:45;100430.77;;;9.49;81.07
38806;BME280;25635;51.146;17.162;2022-09-03T04:36:16;100430.76;;;9.53;81.19
38806;BME280;25635;51.146;17.162;2022-09-03T04:38:46;100430.77;;;9.55;81.33
38806;BME280;25635;51.146;17.162;2022-09-03T04:41:17;100429.46;;;9.55;80.90
38806;BME280;25635;51.146;17.162;2022-09-03T04:43:45;100430.78;;;9.58;80.62
38806;BME280;25635;51.146;17.162;2022-09-03T04:46:16;100439.05;;;9.56;81.63
38806;BME280;25635;51.146;17.162;2022-09-03T04:48:42;100438.61;;;9.57;81.02
38806;BME280;25635;51.146;17.162;2022-09-03T04:51:12;100447.73;;;9.60;80.97
38806;BME280;25635;51.146;17.162;2022-09-03T04:53:41;100451.22;;;9.62;80.84
38806;BME280;25635;51.146;17.162;2022-09-03T04:56:18;100452.97;;;9.69;81.26
38806;BME280;25635;51.146;17.162;2022-09-03T04:58:46;100452.97;;;9.73;81.19
38806;BME280;25635;51.146;17.162;2022-09-03T05:01:21;100450.36;;;9.81;81.84
38806;BME280;25635;51.146;17.162;2022-09-03T05:03:51;100445.98;;;9.88;81.65
38806;BME280;25635;51.146;17.162;2022-09-03T05:06:22;100445.12;;;9.93;80.95
38806;BME280;25635;51.146;17.162;2022-09-03T05:08:55;100445.52;;;9.98;79.98
38806;BME280;25635;51.146;17.162;2022-09-03T05:11:23;100446.40;;;10.03;80.41
38806;BME280;25635;51.146;17.162;2022-09-03T05:13:52;100445.95;;;10.09;80.22
38806;BME280;25635;51.146;17.162;2022-09-03T05:16:20;100450.27;;;10.18;80.21
38806;BME280;25635;51.146;17.162;2022-09-03T05:18:50;100452.02;;;10.25;79.72
38806;BME280;25635;51.146;17.162;2022-09-03T05:21:19;100461.17;;;10.36;80.18
38806;BME280;25635;51.146;17.162;2022-09-03T05:23:47;100455.92;;;10.44;79.38
38806;BME280;25635;51.146;17.162;2022-09-03T05:26:26;100467.20;;;10.53;79.43
38806;BME280;25635;51.146;17.162;2022-09-03T05:28:59;100472.39;;;10.66;79.73
38806;BME280;25635;51.146;17.162;2022-09-03T05:31:29;100472.76;;;10.79;78.88
38806;BME280;25635;51.146;17.162;2022-09-03T05:33:58;100470.09;;;10.93;78.73
38806;BME280;25635;51.146;17.162;2022-09-03T05:36:28;100481.77;;;11.08;78.86
38806;BME280;25635;51.146;17.162;2022-09-03T05:39:04;100479.08;;;11.24;78.80
38806;BME280;25635;51.146;17.162;2022-09-03T05:41:37;100470.70;;;11.36;77.95
38806;BME280;25635;51.146;17.162;2022-09-03T05:44:07;100470.63;;;11.47;77.79
38806;BME280;25635;51.146;17.162;2022-09-03T05:46:34;100469.72;;;11.54;76.65
38806;BME280;25635;51.146;17.162;2022-09-03T05:49:04;100459.61;;;11.59;75.90
38806;BME280;25635;51.146;17.162;2022-09-03T05:51:34;100466.16;;;11.62;76.02
38806;BME280;25635;51.146;17.162;2022-09-03T05:54:01;100470.89;;;11.68;75.58
38806;BME280;25635;51.146;17.162;2022-09-03T05:56:29;100473.47;;;11.76;75.48
38806;BME280;25635;51.146;17.162;2022-09-03T05:58:59;100471.20;;;11.83;75.63
38806;BME280;25635;51.146;17.162;2022-09-03T06:01:31;100462.42;;;11.92;75.36
38806;BME280;25635;51.146;17.162;2022-09-03T06:04:04;100464.07;;;12.02;75.95
38806;BME280;25635;51.146;17.162;2022-09-03T06:06:35;100465.31;;;12.11;75.33
38806;BME280;25635;51.146;17.162;2022-09-03T06:09:08;100465.67;;;12.17;75.53
38806;BME280;25635;51.146;17.162;2022-09-03T06:11:35;100466.95;;;12.22;75.12
38806;BME280;25635;51.146;17.162;2022-09-03T06:14:05;100464.28;;;12.26;74.51
38806;BME280;25635;51.146;17.162;2022-09-03T06:16:35;100467.25;;;12.33;74.76
38806;BME280;25635;51.146;17.162;2022-09-03T06:19:04;100464.96;;;12.42;74.90
38806;BME280;25635;51.146;17.162;2022-09-03T06:21:36;100467.04;;;12.53;74.58
38806;BME280;25635;51.146;17.162;2022-09-03T06:24:06;100463.81;;;12.68;74.59
38806;BME280;25635;51.146;17.162;2022-09-03T06:26:32;100465.31;;;12.86;74.42
38806;BME280;25635;51.146;17.162;2022-09-03T06:28:58;100469.02;;;13.03;73.95
38806;BME280;25635;51.146;17.162;2022-09-03T06:31:25;100470.08;;;13.21;73.85
38806;BME280;25635;51.146;17.162;2022-09-03T06:33:52;100475.11;;;13.38;72.65
38806;BME280;25635;51.146;17.162;2022-09-03T06:36:20;100475.31;;;13.53;72.22
38806;BME280;25635;51.146;17.162;2022-09-03T06:38:50;100478.14;;;13.68;71.48
38806;BME280;25635;51.146;17.162;2022-09-03T06:41:21;100477.47;;;13.82;71.18
38806;BME280;25635;51.146;17.162;2022-09-03T06:43:57;100480.70;;;13.99;71.09
38806;BME280;25635;51.146;17.162;2022-09-03T06:46:29;100487.36;;;14.19;70.05
38806;BME280;25635;51.146;17.162;2022-09-03T06:48:57;100491.42;;;14.37;70.08
38806;BME280;25635;51.146;17.162;2022-09-03T06:51:25;100481.88;;;14.54;69.41
38806;BME280;25635;51.146;17.162;2022-09-03T06:53:57;100482.43;;;14.71;69.62
38806;BME280;25635;51.146;17.162;2022-09-03T06:56:26;100489.00;;;15.13;68.68
38806;BME280;25635;51.146;17.162;2022-09-03T06:58:55;100489.00;;;15.13;68.68
38806;BME280;25635;51.146;17.162;2022-09-03T07:01:25;100481.28;;;15.25;68.41
38806;BME280;25635;51.146;17.162;2022-09-03T07:03:54;100494.38;;;15.48;68.46
38806;BME280;25635;51.146;17.162;2022-09-03T07:06:24;100488.61;;;15.68;68.54
38806;BME280;25635;51.146;17.162;2022-09-03T07:08:53;100496.94;;;15.88;67.23
38806;BME280;25635;51.146;17.162;2022-09-03T07:11:21;100494.59;;;16.10;67.64
38806;BME280;25635;51.146;17.162;2022-09-03T07:13:49;100497.87;;;16.36;66.19
38806;BME280;25635;51.146;17.162;2022-09-03T07:16:34;100486.65;;;16.61;66.46
38806;BME280;25635;51.146;17.162;2022-09-03T07:19:02;100487.38;;;16.83;65.57
38806;BME280;25635;51.146;17.162;2022-09-03T07:21:31;100486.30;;;17.05;65.47
38806;BME280;25635;51.146;17.162;2022-09-03T07:24:01;100489.45;;;17.31;65.02
38806;BME280;25635;51.146;17.162;2022-09-03T07:26:32;100491.63;;;17.59;65.78
38806;BME280;25635;51.146;17.162;2022-09-03T07:29:00;100483.41;;;17.82;64.27
38806;BME280;25635;51.146;17.162;2022-09-03T07:31:30;100482.79;;;18.00;63.83
38806;BME280;25635;51.146;17.162;2022-09-03T07:33:59;100484.77;;;18.20;63.29
38806;BME280;25635;51.146;17.162;2022-09-03T07:36:29;100494.23;;;18.39;63.41
38806;BME280;25635;51.146;17.162;2022-09-03T07:38:57;100487.01;;;18.56;62.43
38806;BME280;25635;51.146;17.162;2022-09-03T07:41:25;100485.33;;;18.79;63.63
38806;BME280;25635;51.146;17.162;2022-09-03T07:43:52;100488.91;;;19.01;62.33
38806;BME280;25635;51.146;17.162;2022-09-03T07:46:21;100488.97;;;19.22;62.37
38806;BME280;25635;51.146;17.162;2022-09-03T07:48:53;100487.67;;;19.44;61.09
38806;BME280;25635;51.146;17.162;2022-09-03T07:51:23;100486.23;;;19.57;60.51
38806;BME280;25635;51.146;17.162;2022-09-03T07:53:55;100483.09;;;19.70;59.77
38806;BME280;25635;51.146;17.162;2022-09-03T07:56:28;100487.02;;;19.83;59.74
38806;BME280;25635;51.146;17.162;2022-09-03T07:58:59;100486.56;;;20.04;60.58
38806;BME280;25635;51.146;17.162;2022-09-03T08:01:27;100481.44;;;20.30;59.91
38806;BME280;25635;51.146;17.162;2022-09-03T08:03:56;100492.97;;;20.50;59.74
38806;BME280;25635;51.146;17.162;2022-09-03T08:06:25;100481.43;;;20.71;59.50
38806;BME280;25635;51.146;17.162;2022-09-03T08:08:57;100486.44;;;20.88;58.61
38806;BME280;25635;51.146;17.162;2022-09-03T08:11:27;100485.88;;;21.00;57.48
38806;BME280;25635;51.146;17.162;2022-09-03T08:13:59;100485.27;;;21.12;58.27
38806;BME280;25635;51.146;17.162;2022-09-03T08:16:33;100489.09;;;21.25;57.46
38806;BME280;25635;51.146;17.162;2022-09-03T08:19:01;100490.63;;;21.40;57.13
38806;BME280;25635;51.146;17.162;2022-09-03T08:21:27;100483.63;;;21.56;57.22
38806;BME280;25635;51.146;17.162;2022-09-03T08:23:55;100483.12;;;21.76;56.81
38806;BME280;25635;51.146;17.162;2022-09-03T08:26:29;100486.20;;;21.94;57.14
38806;BME280;25635;51.146;17.162;2022-09-03T08:28:57;100482.88;;;22.06;55.28
38806;BME280;25635;51.146;17.162;2022-09-03T08:31:24;100483.52;;;22.20;56.36
38806;BME280;25635;51.146;17.162;2022-09-03T08:33:53;100483.84;;;22.32;55.66
38806;BME280;25635;51.146;17.162;2022-09-03T08:39:00;100471.66;;;22.52;55.34
38806;BME280;25635;51.146;17.162;2022-09-03T08:44:58;100469.86;;;22.77;55.74
38806;BME280;25635;51.146;17.162;2022-09-03T08:50:26;100463.94;;;22.97;54.20
38806;BME280;25635;51.146;17.162;2022-09-03T08:53:17;100463.44;;;23.06;53.80
38806;BME280;25635;51.146;17.162;2022-09-03T08:55:59;100462.19;;;23.04;52.76
38806;BME280;25635;51.146;17.162;2022-09-03T08:58:30;100453.36;;;23.11;53.51
38806;BME280;25635;51.146;17.162;2022-09-03T09:01:15;100464.11;;;23.25;53.07
38806;BME280;25635;51.146;17.162;2022-09-03T09:12:34;100461.54;;;23.79;51.86
38806;BME280;25635;51.146;17.162;2022-09-03T09:15:10;100457.66;;;23.92;51.44
38806;BME280;25635;51.146;17.162;2022-09-03T09:18:08;100450.17;;;24.05;51.32
38806;BME280;25635;51.146;17.162;2022-09-03T09:20:42;100455.73;;;24.31;51.56
38806;BME280;25635;51.146;17.162;2022-09-03T09:25:54;100446.81;;;24.54;50.01
38806;BME280;25635;51.146;17.162;2022-09-03T09:28:24;100447.38;;;24.66;48.84
38806;BME280;25635;51.146;17.162;2022-09-03T09:30:56;100439.05;;;24.78;49.69
38806;BME280;25635;51.146;17.162;2022-09-03T09:33:23;100441.03;;;24.88;48.50
38806;BME280;25635;51.146;17.162;2022-09-03T09:35:51;100443.22;;;24.96;49.25
38806;BME280;25635;51.146;17.162;2022-09-03T09:38:32;100440.43;;;25.05;49.08
38806;BME280;25635;51.146;17.162;2022-09-03T09:41:09;100432.86;;;25.19;48.56
38806;BME280;25635;51.146;17.162;2022-09-03T09:43:46;100433.02;;;25.37;48.19
38806;BME280;25635;51.146;17.162;2022-09-03T09:46:19;100426.38;;;25.43;45.51
38806;BME280;25635;51.146;17.162;2022-09-03T09:48:53;100427.67;;;25.37;45.24
38806;BME280;25635;51.146;17.162;2022-09-03T09:51:24;100421.61;;;25.41;47.13
38806;BME280;25635;51.146;17.162;2022-09-03T09:54:11;100424.91;;;25.52;45.74
38806;BME280;25635;51.146;17.162;2022-09-03T09:56:42;100426.55;;;25.47;45.38
38806;BME280;25635;51.146;17.162;2022-09-03T09:59:11;100422.05;;;25.47;42.77
38806;BME280;25635;51.146;17.162;2022-09-03T10:01:41;100429.63;;;25.48;44.39
38806;BME280;25635;51.146;17.162;2022-09-03T10:04:21;100432.66;;;25.49;44.20
38806;BME280;25635;51.146;17.162;2022-09-03T10:07:04;100428.02;;;25.45;43.43
38806;BME280;25635;51.146;17.162;2022-09-03T10:09:31;100432.63;;;25.36;43.61
38806;BME280;25635;51.146;17.162;2022-09-03T10:12:23;100423.66;;;25.30;44.46
38806;BME280;25635;51.146;17.162;2022-09-03T10:21:02;100417.98;;;25.42;44.01
38806;BME280;25635;51.146;17.162;2022-09-03T10:26:23;100410.40;;;25.48;43.02
38806;BME280;25635;51.146;17.162;2022-09-03T10:28:55;100413.08;;;25.48;43.65
38806;BME280;25635;51.146;17.162;2022-09-03T10:37:47;100401.95;;;25.55;41.56
38806;BME280;25635;51.146;17.162;2022-09-03T10:40:37;100411.50;;;25.59;42.54
38806;BME280;25635;51.146;17.162;2022-09-03T10:46:26;100399.04;;;25.65;43.29
38806;BME280;25635;51.146;17.162;2022-09-03T10:49:07;100398.40;;;25.74;42.26
38806;BME280;25635;51.146;17.162;2022-09-03T10:51:40;100402.09;;;25.79;43.15
38806;BME280;25635;51.146;17.162;2022-09-03T10:54:22;100398.15;;;25.84;42.00
38806;BME280;25635;51.146;17.162;2022-09-03T11:05:48;100396.71;;;26.19;41.05
38806;BME280;25635;51.146;17.162;2022-09-03T11:16:50;100372.73;;;26.36;41.22
38806;BME280;25635;51.146;17.162;2022-09-03T11:19:33;100376.91;;;26.40;40.71
38806;BME280;25635;51.146;17.162;2022-09-03T11:22:03;100379.67;;;26.51;41.68
38806;BME280;25635;51.146;17.162;2022-09-03T11:24:32;100361.05;;;26.55;41.37
38806;BME280;25635;51.146;17.162;2022-09-03T11:27:14;100363.06;;;26.59;41.67
38806;BME280;25635;51.146;17.162;2022-09-03T11:29:39;100359.45;;;26.65;40.57
38806;BME280;25635;51.146;17.162;2022-09-03T11:32:17;100366.30;;;26.69;41.04
38806;BME280;25635;51.146;17.162;2022-09-03T11:34:50;100362.77;;;26.69;40.44
38806;BME280;25635;51.146;17.162;2022-09-03T11:37:22;100366.50;;;26.61;40.57
38806;BME280;25635;51.146;17.162;2022-09-03T11:40:14;100358.31;;;26.49;40.21
38806;BME280;25635;51.146;17.162;2022-09-03T11:42:44;100356.41;;;26.39;40.70
38806;BME280;25635;51.146;17.162;2022-09-03T11:45:21;100350.05;;;26.34;40.76
38806;BME280;25635;51.146;17.162;2022-09-03T11:47:55;100352.52;;;26.24;40.40
38806;BME280;25635;51.146;17.162;2022-09-03T11:50:27;100355.90;;;26.08;40.85
38806;BME280;25635;51.146;17.162;2022-09-03T11:58:38;100346.05;;;25.50;40.36
38806;BME280;25635;51.146;17.162;2022-09-03T12:01:10;100355.91;;;25.22;40.32
38806;BME280;25635;51.146;17.162;2022-09-03T12:03:53;100345.09;;;24.97;41.08
38806;BME280;25635;51.146;17.162;2022-09-03T12:09:17;100350.13;;;24.74;40.84
38806;BME280;25635;51.146;17.162;2022-09-03T12:17:22;100345.69;;;24.60;41.44
38806;BME280;25635;51.146;17.162;2022-09-03T12:20:02;100340.62;;;24.41;41.24
38806;BME280;25635;51.146;17.162;2022-09-03T12:22:32;100339.28;;;24.20;41.65
38806;BME280;25635;51.146;17.162;2022-09-03T12:25:11;100334.52;;;24.18;42.80
38806;BME280;25635;51.146;17.162;2022-09-03T12:27:42;100331.86;;;24.25;42.76
38806;BME280;25635;51.146;17.162;2022-09-03T12:30:16;100324.03;;;24.29;42.78
38806;BME280;25635;51.146;17.162;2022-09-03T12:32:44;100333.67;;;24.39;42.49
38806;BME280;25635;51.146;17.162;2022-09-03T12:35:18;100327.16;;;24.36;42.67
38806;BME280;25635;51.146;17.162;2022-09-03T12:37:51;100322.30;;;24.28;41.04
38806;BME280;25635;51.146;17.162;2022-09-03T12:40:23;100323.36;;;24.25;42.61
38806;BME280;25635;51.146;17.162;2022-09-03T12:42:52;100319.93;;;24.31;42.27
38806;BME280;25635;51.146;17.162;2022-09-03T12:45:25;100322.01;;;24.40;42.24
38806;BME280;25635;51.146;17.162;2022-09-03T12:47:51;100321.22;;;24.45;42.34
38806;BME280;25635;51.146;17.162;2022-09-03T12:50:20;100318.37;;;24.48;41.97
38806;BME280;25635;51.146;17.162;2022-09-03T12:52:51;100325.23;;;24.45;41.51
38806;BME280;25635;51.146;17.162;2022-09-03T13:00:35;100324.78;;;24.24;42.64
38806;BME280;25635;51.146;17.162;2022-09-03T13:03:14;100318.98;;;24.24;42.57
38806;BME280;25635;51.146;17.162;2022-09-03T13:05:48;100318.50;;;24.25;42.22
38806;BME280;25635;51.146;17.162;2022-09-03T13:08:21;100314.87;;;24.19;42.49
38806;BME280;25635;51.146;17.162;2022-09-03T13:10:54;100307.34;;;24.18;42.88
38806;BME280;25635;51.146;17.162;2022-09-03T13:13:33;100312.69;;;24.18;42.26
38806;BME280;25635;51.146;17.162;2022-09-03T13:19:04;100306.86;;;24.19;42.78
38806;BME280;25635;51.146;17.162;2022-09-03T13:24:41;100313.91;;;24.27;42.61
38806;BME280;25635;51.146;17.162;2022-09-03T13:27:31;100309.32;;;24.22;42.39
38806;BME280;25635;51.146;17.162;2022-09-03T13:30:12;100315.23;;;24.20;41.98
38806;BME280;25635;51.146;17.162;2022-09-03T13:33:39;100314.13;;;24.10;41.84
38806;BME280;25635;51.146;17.162;2022-09-03T13:38:37;100312.59;;;24.13;41.99
38806;BME280;25635;51.146;17.162;2022-09-03T13:41:16;100304.20;;;24.12;42.02
38806;BME280;25635;51.146;17.162;2022-09-03T13:46:46;100308.37;;;24.16;42.21
38806;BME280;25635;51.146;17.162;2022-09-03T13:55:55;100310.77;;;23.99;42.37
38806;BME280;25635;51.146;17.162;2022-09-03T13:58:34;100305.99;;;23.97;42.64
38806;BME280;25635;51.146;17.162;2022-09-03T14:01:22;100307.05;;;23.94;42.69
38806;BME280;25635;51.146;17.162;2022-09-03T14:03:52;100318.23;;;23.86;42.85
38806;BME280;25635;51.146;17.162;2022-09-03T14:06:37;100307.95;;;23.72;42.88
38806;BME280;25635;51.146;17.162;2022-09-03T14:12:20;100314.03;;;23.52;43.18
38806;BME280;25635;51.146;17.162;2022-09-03T14:15:40;100315.16;;;23.41;43.10
38806;BME280;25635;51.146;17.162;2022-09-03T14:21:08;100303.25;;;23.09;44.10
38806;BME280;25635;51.146;17.162;2022-09-03T14:23:46;100307.93;;;22.97;44.61
38806;BME280;25635;51.146;17.162;2022-09-03T14:26:18;100312.92;;;22.87;44.57
38806;BME280;25635;51.146;17.162;2022-09-03T14:29:04;100309.46;;;22.78;44.78
38806;BME280;25635;51.146;17.162;2022-09-03T14:35:05;100300.38;;;22.73;45.49
38806;BME280;25635;51.146;17.162;2022-09-03T14:40:30;100311.00;;;22.66;45.49
38806;BME280;25635;51.146;17.162;2022-09-03T14:46:39;100309.61;;;22.59;45.20
38806;BME280;25635;51.146;17.162;2022-09-03T15:00:27;100314.48;;;22.28;46.44
38806;BME280;25635;51.146;17.162;2022-09-03T15:03:04;100310.56;;;22.26;46.51
38806;BME280;25635;51.146;17.162;2022-09-03T15:06:06;100310.80;;;22.21;46.97
38806;BME280;25635;51.146;17.162;2022-09-03T15:11:29;100306.75;;;22.05;47.04
38806;BME280;25635;51.146;17.162;2022-09-03T15:14:13;100305.94;;;21.96;47.12
38806;BME280;25635;51.146;17.162;2022-09-03T15:20:32;100304.02;;;21.74;47.78
38806;BME280;25635;51.146;17.162;2022-09-03T15:35:05;100304.39;;;21.14;48.36
38806;BME280;25635;51.146;17.162;2022-09-03T15:37:57;100300.70;;;20.99;48.70
38806;BME280;25635;51.146;17.162;2022-09-03T15:40:31;100301.70;;;20.88;49.07
38806;BME280;25635;51.146;17.162;2022-09-03T15:43:17;100297.67;;;20.79;49.53
38806;BME280;25635;51.146;17.162;2022-09-03T15:45:51;100300.32;;;20.70;49.67
38806;BME280;25635;51.146;17.162;2022-09-03T15:48:36;100303.20;;;20.65;50.05
38806;BME280;25635;51.146;17.162;2022-09-03T15:51:25;100307.01;;;20.60;49.95
38806;BME280;25635;51.146;17.162;2022-09-03T15:54:00;100301.83;;;20.57;50.15
38806;BME280;25635;51.146;17.162;2022-09-03T15:56:38;100301.95;;;20.54;50.45
38806;BME280;25635;51.146;17.162;2022-09-03T16:07:48;100314.45;;;20.33;50.72
38806;BME280;25635;51.146;17.162;2022-09-03T16:10:49;100311.16;;;20.28;50.77
38806;BME280;25635;51.146;17.162;2022-09-03T16:16:41;100311.60;;;20.18;50.78
38806;BME280;25635;51.146;17.162;2022-09-03T16:19:37;100313.65;;;20.12;51.11
38806;BME280;25635;51.146;17.162;2022-09-03T16:22:25;100314.28;;;20.08;51.32
38806;BME280;25635;51.146;17.162;2022-09-03T16:25:07;100321.98;;;20.04;51.64
38806;BME280;25635;51.146;17.162;2022-09-03T16:30:12;100313.50;;;19.96;51.40
38806;BME280;25635;51.146;17.162;2022-09-03T16:41:33;100313.84;;;19.78;52.21
38806;BME280;25635;51.146;17.162;2022-09-03T16:47:21;100310.31;;;19.67;52.36
38806;BME280;25635;51.146;17.162;2022-09-03T16:58:47;100317.93;;;19.34;52.90